sensor_id;sensor_type;location;lat;lon;timestamp;pressure;altitude;pressure_sealevel;temperature
12409;BMP180;6268;48.188;17.134;2023-02-01T00:01:39;49639.06;;;-134.68
12409;BMP180;6268;48.188;17.134;2023-02-01T00:04:08;49642.94;;;-134.68
12409;BMP180;6268;48.188;17.134;2023-02-01T00:06:36;49642.94;;;-134.68
12409;BMP180;6268;48.188;17.134;2023-02-01T00:09:05;49641.00;;;-134.68
12409;BMP180;6268;48.188;17.134;2023-02-01T00:11:35;49641.00;;;-134.68
12409;BMP180;6268;48.188;17.134;2023-02-01T00:14:05;49641.00;;;-134.68
12409;BMP180;6268;48.188;17.134;2023-02-01T00:16:35;49639.06;;;-134.68
12409;BMP180;6268;48.188;17.134;2023-02-01T00:19:07;49639.06;;;-134.68
12409;BMP180;6268;48.188;17.134;2023-02-01T00:21:38;49639.06;;;-134.68
12409;BMP180;6268;48.188;17.134;2023-02-01T00:24:08;49641.00;;;-134.68
12409;BMP180;6268;48.188;17.134;2023-02-01T00:26:40;49639.06;;;-134.68
12409;BMP180;6268;48.188;17.134;2023-02-01T00:29:15;49642.94;;;-134.68
12409;BMP180;6268;48.188;17.134;2023-02-01T00:31:45;49639.06;;;-134.68
12409;BMP180;6268;48.188;17.134;2023-02-01T00:34:16;49639.06;;;-134.68
12409;BMP180;6268;48.188;17.134;2023-02-01T00:36:45;49639.06;;;-134.68
12409;BMP180;6268;48.188;17.134;2023-02-01T00:39:14;49642.94;;;-134.68
12409;BMP180;6268;48.188;17.134;2023-02-01T00:41:43;49639.06;;;-134.68
12409;BMP180;6268;48.188;17.134;2023-02-01T00:44:14;49639.06;;;-134.68
12409;BMP180;6268;48.188;17.134;2023-02-01T00:46:42;49642.94;;;-134.68
12409;BMP180;6268;48.188;17.134;2023-02-01T00:49:11;49639.06;;;-134.68
12409;BMP180;6268;48.188;17.134;2023-02-01T00:51:40;49639.06;;;-134.68
12409;BMP180;6268;48.188;17.134;2023-02-01T00:54:09;49642.94;;;-134.68
12409;BMP180;6268;48.188;17.134;2023-02-01T00:56:37;49642.94;;;-134.68
12409;BMP180;6268;48.188;17.134;2023-02-01T00:59:07;49642.94;;;-134.68
12409;BMP180;6268;48.188;17.134;2023-02-01T01:01:40;49642.94;;;-134.68
12409;BMP180;6268;48.188;17.134;2023-02-01T01:04:09;49639.06;;;-134.68
12409;BMP180;6268;48.188;17.134;2023-02-01T01:06:38;49641.00;;;-134.68
12409;BMP180;6268;48.188;17.134;2023-02-01T01:09:07;49639.06;;;-134.68
12409;BMP180;6268;48.188;17.134;2023-02-01T01:11:38;49642.94;;;-134.68
12409;BMP180;6268;48.188;17.134;2023-02-01T01:14:08;49639.06;;;-134.68
12409;BMP180;6268;48.188;17.134;2023-02-01T01:16:37;49641.00;;;-134.68
12409;BMP180;6268;48.188;17.134;2023-02-01T01:19:07;49641.00;;;-134.68
12409;BMP180;6268;48.188;17.134;2023-02-01T01:21:36;49642.94;;;-134.68
12409;BMP180;6268;48.188;17.134;2023-02-01T01:24:05;49641.00;;;-134.68
12409;BMP180;6268;48.188;17.134;2023-02-01T01:26:34;49639.06;;;-134.68
12409;BMP180;6268;48.188;17.134;2023-02-01T01:29:03;49639.06;;;-134.68
12409;BMP180;6268;48.188;17.134;2023-02-01T01:31:32;49641.00;;;-134.68
12409;BMP180;6268;48.188;17.134;2023-02-01T01:34:01;49641.00;;;-134.68
12409;BMP180;6268;48.188;17.134;2023-02-01T01:36:32;49641.00;;;-134.68
12409;BMP180;6268;48.188;17.134;2023-02-01T01:39:01;49639.06;;;-134.68
12409;BMP180;6268;48.188;17.134;2023-02-01T01:41:31;49639.06;;;-134.68
12409;BMP180;6268;48.188;17.134;2023-02-01T01:44:02;49642.94;;;-134.68
12409;BMP180;6268;48.188;17.134;2023-02-01T01:46:35;49642.94;;;-134.68
12409;BMP180;6268;48.188;17.134;2023-02-01T01:49:10;49641.00;;;-134.68
12409;BMP180;6268;48.188;17.134;2023-02-01T01:51:46;49641.00;;;-134.68
12409;BMP180;6268;48.188;17.134;2023-02-01T01:54:21;49642.94;;;-134.68
12409;BMP180;6268;48.188;17.134;2023-02-01T01:56:57;49641.00;;;-134.68
12409;BMP180;6268;48.188;17.134;2023-02-01T01:59:31;49641.00;;;-134.68
12409;BMP180;6268;48.188;17.134;2023-02-01T02:02:01;49641.00;;;-134.68
12409;BMP180;6268;48.188;17.134;2023-02-01T02:04:31;49642.94;;;-134.68
12409;BMP180;6268;48.188;17.134;2023-02-01T02:07:05;49639.06;;;-134.68
12409;BMP180;6268;48.188;17.134;2023-02-01T02:09:36;49639.06;;;-134.68
12409;BMP180;6268;48.188;17.134;2023-02-01T02:12:09;49641.00;;;-134.68
12409;BMP180;6268;48.188;17.134;2023-02-01T02:14:38;49641.00;;;-134.68
12409;BMP180;6268;48.188;17.134;2023-02-01T02:17:21;49639.06;;;-134.68
12409;BMP180;6268;48.188;17.134;2023-02-01T02:20:31;49642.94;;;-134.68
12409;BMP180;6268;48.188;17.134;2023-02-01T02:23:53;49639.06;;;-134.68
12409;BMP180;6268;48.188;17.134;2023-02-01T02:26:51;49642.94;;;-134.68
12409;BMP180;6268;48.188;17.134;2023-02-01T02:33:30;49639.06;;;-134.68
12409;BMP180;6268;48.188;17.134;2023-02-01T02:36:10;49639.06;;;-134.68
12409;BMP180;6268;48.188;17.134;2023-02-01T02:38:52;49642.94;;;-134.68
12409;BMP180;6268;48.188;17.134;2023-02-01T02:41:31;49641.00;;;-134.68
12409;BMP180;6268;48.188;17.134;2023-02-01T02:44:31;49639.06;;;-134.68
12409;BMP180;6268;48.188;17.134;2023-02-01T02:47:24;49641.00;;;-134.68
12409;BMP180;6268;48.188;17.134;2023-02-01T02:50:17;49641.00;;;-134.68
12409;BMP180;6268;48.188;17.134;2023-02-01T02:53:14;49641.00;;;-134.68
12409;BMP180;6268;48.188;17.134;2023-02-01T02:56:04;49642.94;;;-134.68
12409;BMP180;6268;48.188;17.134;2023-02-01T02:58:52;49642.94;;;-134.68
12409;BMP180;6268;48.188;17.134;2023-02-01T03:01:41;49639.06;;;-134.68
12409;BMP180;6268;48.188;17.134;2023-02-01T03:04:28;49641.00;;;-134.68
12409;BMP180;6268;48.188;17.134;2023-02-01T03:07:12;49639.06;;;-134.68
12409;BMP180;6268;48.188;17.134;2023-02-01T03:09:47;49641.00;;;-134.68
12409;BMP180;6268;48.188;17.134;2023-02-01T03:12:18;49642.94;;;-134.68
12409;BMP180;6268;48.188;17.134;2023-02-01T03:15:10;49641.00;;;-134.68
12409;BMP180;6268;48.188;17.134;2023-02-01T03:17:44;49641.00;;;-134.68
12409;BMP180;6268;48.188;17.134;2023-02-01T03:20:16;49641.00;;;-134.68
12409;BMP180;6268;48.188;17.134;2023-02-01T03:22:52;49641.00;;;-134.68
12409;BMP180;6268;48.188;17.134;2023-02-01T03:25:30;49641.00;;;-134.68
12409;BMP180;6268;48.188;17.134;2023-02-01T03:28:04;49639.06;;;-134.68
12409;BMP180;6268;48.188;17.134;2023-02-01T03:30:37;49639.06;;;-134.68
12409;BMP180;6268;48.188;17.134;2023-02-01T03:33:12;49641.00;;;-134.68
12409;BMP180;6268;48.188;17.134;2023-02-01T03:35:59;49641.00;;;-134.68
12409;BMP180;6268;48.188;17.134;2023-02-01T03:38:37;49642.94;;;-134.68
12409;BMP180;6268;48.188;17.134;2023-02-01T03:41:15;49639.06;;;-134.68
12409;BMP180;6268;48.188;17.134;2023-02-01T03:43:55;49642.94;;;-134.68
12409;BMP180;6268;48.188;17.134;2023-02-01T03:46:32;49641.00;;;-134.68
12409;BMP180;6268;48.188;17.134;2023-02-01T03:49:06;49641.00;;;-134.68
12409;BMP180;6268;48.188;17.134;2023-02-01T03:51:40;49641.00;;;-134.68
12409;BMP180;6268;48.188;17.134;2023-02-01T03:54:14;49642.94;;;-134.68
12409;BMP180;6268;48.188;17.134;2023-02-01T03:56:47;49641.00;;;-134.68
12409;BMP180;6268;48.188;17.134;2023-02-01T03:59:16;49642.94;;;-134.68
12409;BMP180;6268;48.188;17.134;2023-02-01T04:01:45;49642.94;;;-134.68
12409;BMP180;6268;48.188;17.134;2023-02-01T04:04:15;49642.94;;;-134.68
12409;BMP180;6268;48.188;17.134;2023-02-01T04:06:47;49639.06;;;-134.68
12409;BMP180;6268;48.188;17.134;2023-02-01T04:09:18;49639.06;;;-134.68
12409;BMP180;6268;48.188;17.134;2023-02-01T04:11:46;49641.00;;;-134.68
12409;BMP180;6268;48.188;17.134;2023-02-01T04:14:16;49642.94;;;-134.68
12409;BMP180;6268;48.188;17.134;2023-02-01T04:16:45;49641.00;;;-134.68
12409;BMP180;6268;48.188;17.134;2023-02-01T04:19:14;49641.00;;;-134.68
12409;BMP180;6268;48.188;17.134;2023-02-01T04:21:42;49642.94;;;-134.68
12409;BMP180;6268;48.188;17.134;2023-02-01T04:24:11;49639.06;;;-134.68
12409;BMP180;6268;48.188;17.134;2023-02-01T04:26:42;49641.00;;;-134.68
12409;BMP180;6268;48.188;17.134;2023-02-01T04:29:11;49641.00;;;-134.68
12409;BMP180;6268;48.188;17.134;2023-02-01T04:31:40;49642.94;;;-134.68
12409;BMP180;6268;48.188;17.134;2023-02-01T04:34:09;49639.06;;;-134.68
12409;BMP180;6268;48.188;17.134;2023-02-01T04:36:38;49639.06;;;-134.68
12409;BMP180;6268;48.188;17.134;2023-02-01T04:39:08;49641.00;;;-134.68
12409;BMP180;6268;48.188;17.134;2023-02-01T04:41:37;49641.00;;;-134.68
12409;BMP180;6268;48.188;17.134;2023-02-01T04:44:14;49644.88;;;-134.68
12409;BMP180;6268;48.188;17.134;2023-02-01T04:46:44;49641.00;;;-134.68
12409;BMP180;6268;48.188;17.134;2023-02-01T04:49:15;49641.00;;;-134.68
12409;BMP180;6268;48.188;17.134;2023-02-01T04:51:44;49641.00;;;-134.68
12409;BMP180;6268;48.188;17.134;2023-02-01T04:54:13;49641.00;;;-134.68
12409;BMP180;6268;48.188;17.134;2023-02-01T04:56:42;49641.00;;;-134.68
12409;BMP180;6268;48.188;17.134;2023-02-01T04:59:12;49642.94;;;-134.68
12409;BMP180;6268;48.188;17.134;2023-02-01T05:01:41;49639.06;;;-134.68
12409;BMP180;6268;48.188;17.134;2023-02-01T05:04:10;49641.00;;;-134.68
12409;BMP180;6268;48.188;17.134;2023-02-01T05:06:39;49642.94;;;-134.68
12409;BMP180;6268;48.188;17.134;2023-02-01T05:09:08;49641.00;;;-134.68
12409;BMP180;6268;48.188;17.134;2023-02-01T05:11:37;49639.06;;;-134.68
12409;BMP180;6268;48.188;17.134;2023-02-01T05:14:25;49642.94;;;-134.68
12409;BMP180;6268;48.188;17.134;2023-02-01T05:16:53;49642.94;;;-134.68
12409;BMP180;6268;48.188;17.134;2023-02-01T05:19:22;49639.06;;;-134.68
12409;BMP180;6268;48.188;17.134;2023-02-01T05:21:51;49641.00;;;-134.68
12409;BMP180;6268;48.188;17.134;2023-02-01T05:24:20;49642.94;;;-134.68
12409;BMP180;6268;48.188;17.134;2023-02-01T05:26:49;49641.00;;;-134.68
12409;BMP180;6268;48.188;17.134;2023-02-01T05:29:18;49642.94;;;-134.68
12409;BMP180;6268;48.188;17.134;2023-02-01T05:31:49;49639.06;;;-134.68
12409;BMP180;6268;48.188;17.134;2023-02-01T05:34:18;49641.00;;;-134.68
12409;BMP180;6268;48.188;17.134;2023-02-01T05:36:47;49639.06;;;-134.68
12409;BMP180;6268;48.188;17.134;2023-02-01T05:39:15;49642.94;;;-134.68
12409;BMP180;6268;48.188;17.134;2023-02-01T05:41:44;49639.06;;;-134.68
12409;BMP180;6268;48.188;17.134;2023-02-01T05:44:13;49641.00;;;-134.68
12409;BMP180;6268;48.188;17.134;2023-02-01T05:46:42;49642.94;;;-134.68
12409;BMP180;6268;48.188;17.134;2023-02-01T05:49:13;49642.94;;;-134.68
12409;BMP180;6268;48.188;17.134;2023-02-01T05:51:41;49642.94;;;-134.68
12409;BMP180;6268;48.188;17.134;2023-02-01T05:54:10;49641.00;;;-134.68
12409;BMP180;6268;48.188;17.134;2023-02-01T05:56:39;49642.94;;;-134.68
12409;BMP180;6268;48.188;17.134;2023-02-01T05:59:10;49641.00;;;-134.68
12409;BMP180;6268;48.188;17.134;2023-02-01T06:01:38;49642.94;;;-134.68
12409;BMP180;6268;48.188;17.134;2023-02-01T06:04:07;49642.94;;;-134.68
12409;BMP180;6268;48.188;17.134;2023-02-01T06:06:37;49641.00;;;-134.68
12409;BMP180;6268;48.188;17.134;2023-02-01T06:09:06;49641.00;;;-134.68
12409;BMP180;6268;48.188;17.134;2023-02-01T06:11:35;49642.94;;;-134.68
12409;BMP180;6268;48.188;17.134;2023-02-01T06:14:04;49641.00;;;-134.68
12409;BMP180;6268;48.188;17.134;2023-02-01T06:16:35;49639.06;;;-134.68
12409;BMP180;6268;48.188;17.134;2023-02-01T06:19:04;49641.00;;;-134.68
12409;BMP180;6268;48.188;17.134;2023-02-01T06:21:33;49639.06;;;-134.68
12409;BMP180;6268;48.188;17.134;2023-02-01T06:24:05;49639.06;;;-134.68
12409;BMP180;6268;48.188;17.134;2023-02-01T06:26:33;49641.00;;;-134.68
12409;BMP180;6268;48.188;17.134;2023-02-01T06:29:03;49642.94;;;-134.68
12409;BMP180;6268;48.188;17.134;2023-02-01T06:31:34;49641.00;;;-134.68
12409;BMP180;6268;48.188;17.134;2023-02-01T06:34:03;49642.94;;;-134.68
12409;BMP180;6268;48.188;17.134;2023-02-01T06:36:31;49642.94;;;-134.68
12409;BMP180;6268;48.188;17.134;2023-02-01T06:39:00;49641.00;;;-134.68
12409;BMP180;6268;48.188;17.134;2023-02-01T06:41:30;49642.94;;;-134.68
12409;BMP180;6268;48.188;17.134;2023-02-01T06:44:01;49639.06;;;-134.68
12409;BMP180;6268;48.188;17.134;2023-02-01T06:46:30;49637.13;;;-134.68
12409;BMP180;6268;48.188;17.134;2023-02-01T06:48:59;49642.94;;;-134.68
12409;BMP180;6268;48.188;17.134;2023-02-01T06:51:28;49642.94;;;-134.68
12409;BMP180;6268;48.188;17.134;2023-02-01T06:53:57;49641.00;;;-134.68
12409;BMP180;6268;48.188;17.134;2023-02-01T06:56:27;49642.94;;;-134.68
12409;BMP180;6268;48.188;17.134;2023-02-01T06:58:57;49644.88;;;-134.68
12409;BMP180;6268;48.188;17.134;2023-02-01T07:01:27;49641.00;;;-134.68
12409;BMP180;6268;48.188;17.134;2023-02-01T07:03:56;49641.00;;;-134.68
12409;BMP180;6268;48.188;17.134;2023-02-01T07:06:25;49641.00;;;-134.68
12409;BMP180;6268;48.188;17.134;2023-02-01T07:08:54;49644.88;;;-134.68
12409;BMP180;6268;48.188;17.134;2023-02-01T07:11:24;49642.94;;;-134.68
12409;BMP180;6268;48.188;17.134;2023-02-01T07:13:54;49642.94;;;-134.68
12409;BMP180;6268;48.188;17.134;2023-02-01T07:16:25;49642.94;;;-134.68
12409;BMP180;6268;48.188;17.134;2023-02-01T07:18:54;49641.00;;;-134.68
12409;BMP180;6268;48.188;17.134;2023-02-01T07:21:22;49641.00;;;-134.68
12409;BMP180;6268;48.188;17.134;2023-02-01T07:23:51;49644.88;;;-134.68
12409;BMP180;6268;48.188;17.134;2023-02-01T07:26:20;49642.94;;;-134.68
12409;BMP180;6268;48.188;17.134;2023-02-01T07:28:49;49642.94;;;-134.68
12409;BMP180;6268;48.188;17.134;2023-02-01T07:31:19;49641.00;;;-134.68
12409;BMP180;6268;48.188;17.134;2023-02-01T07:33:50;49644.88;;;-134.68
12409;BMP180;6268;48.188;17.134;2023-02-01T07:36:20;49642.94;;;-134.68
12409;BMP180;6268;48.188;17.134;2023-02-01T07:38:49;49646.84;;;-134.68
12409;BMP180;6268;48.188;17.134;2023-02-01T07:41:22;49642.94;;;-134.68
12409;BMP180;6268;48.188;17.134;2023-02-01T07:43:53;49639.06;;;-134.68
12409;BMP180;6268;48.188;17.134;2023-02-01T07:46:22;49644.88;;;-134.68
12409;BMP180;6268;48.188;17.134;2023-02-01T07:48:52;49646.84;;;-134.68
12409;BMP180;6268;48.188;17.134;2023-02-01T07:51:21;49646.84;;;-134.68
12409;BMP180;6268;48.188;17.134;2023-02-01T07:53:49;49646.84;;;-134.68
12409;BMP180;6268;48.188;17.134;2023-02-01T07:56:21;49648.78;;;-134.68
12409;BMP180;6268;48.188;17.134;2023-02-01T07:58:53;49644.88;;;-134.68
12409;BMP180;6268;48.188;17.134;2023-02-01T08:01:25;49642.94;;;-134.68
12409;BMP180;6268;48.188;17.134;2023-02-01T08:03:57;49642.94;;;-134.68
12409;BMP180;6268;48.188;17.134;2023-02-01T08:06:32;49644.88;;;-134.68
12409;BMP180;6268;48.188;17.134;2023-02-01T08:09:02;49644.88;;;-134.68
12409;BMP180;6268;48.188;17.134;2023-02-01T08:11:31;49646.84;;;-134.68
12409;BMP180;6268;48.188;17.134;2023-02-01T08:14:00;49644.88;;;-134.68
12409;BMP180;6268;48.188;17.134;2023-02-01T08:16:29;49646.84;;;-134.68
12409;BMP180;6268;48.188;17.134;2023-02-01T08:19:00;49644.88;;;-134.68
12409;BMP180;6268;48.188;17.134;2023-02-01T08:21:29;49646.84;;;-134.68
12409;BMP180;6268;48.188;17.134;2023-02-01T08:24:05;49646.84;;;-134.68
12409;BMP180;6268;48.188;17.134;2023-02-01T08:26:34;49646.84;;;-134.68
12409;BMP180;6268;48.188;17.134;2023-02-01T08:29:07;49646.84;;;-134.68
12409;BMP180;6268;48.188;17.134;2023-02-01T08:31:37;49644.88;;;-134.68
12409;BMP180;6268;48.188;17.134;2023-02-01T08:34:09;49648.78;;;-134.68
12409;BMP180;6268;48.188;17.134;2023-02-01T08:36:39;49644.88;;;-134.68
12409;BMP180;6268;48.188;17.134;2023-02-01T08:39:10;49644.88;;;-134.68
12409;BMP180;6268;48.188;17.134;2023-02-01T08:41:39;49646.84;;;-134.68
12409;BMP180;6268;48.188;17.134;2023-02-01T08:44:09;49648.78;;;-134.68
12409;BMP180;6268;48.188;17.134;2023-02-01T08:46:38;49646.84;;;-134.68
12409;BMP180;6268;48.188;17.134;2023-02-01T08:49:08;49650.72;;;-134.68
12409;BMP180;6268;48.188;17.134;2023-02-01T08:51:37;49648.78;;;-134.68
12409;BMP180;6268;48.188;17.134;2023-02-01T08:54:06;49648.78;;;-134.68
12409;BMP180;6268;48.188;17.134;2023-02-01T08:56:35;49646.84;;;-134.68
12409;BMP180;6268;48.188;17.134;2023-02-01T08:59:04;49648.78;;;-134.68
12409;BMP180;6268;48.188;17.134;2023-02-01T09:01:32;49646.84;;;-134.68
12409;BMP180;6268;48.188;17.134;2023-02-01T09:04:01;49648.78;;;-134.68
12409;BMP180;6268;48.188;17.134;2023-02-01T09:06:32;49648.78;;;-134.68
12409;BMP180;6268;48.188;17.134;2023-02-01T09:09:01;49648.78;;;-134.68
12409;BMP180;6268;48.188;17.134;2023-02-01T09:11:30;49648.78;;;-134.68
12409;BMP180;6268;48.188;17.134;2023-02-01T09:13:59;49646.84;;;-134.68
12409;BMP180;6268;48.188;17.134;2023-02-01T09:16:28;49646.84;;;-134.68
12409;BMP180;6268;48.188;17.134;2023-02-01T09:18:57;49648.78;;;-134.68
12409;BMP180;6268;48.188;17.134;2023-02-01T09:21:47;49646.84;;;-134.68
12409;BMP180;6268;48.188;17.134;2023-02-01T09:24:16;49648.78;;;-134.68
12409;BMP180;6268;48.188;17.134;2023-02-01T09:26:45;49646.84;;;-134.68
12409;BMP180;6268;48.188;17.134;2023-02-01T09:29:14;49648.78;;;-134.68
12409;BMP180;6268;48.188;17.134;2023-02-01T09:31:43;49646.84;;;-134.68
12409;BMP180;6268;48.188;17.134;2023-02-01T09:34:29;49646.84;;;-134.68
12409;BMP180;6268;48.188;17.134;2023-02-01T09:37:00;49646.84;;;-134.68
12409;BMP180;6268;48.188;17.134;2023-02-01T09:39:29;49644.88;;;-134.68
12409;BMP180;6268;48.188;17.134;2023-02-01T09:42:13;49644.88;;;-134.68
12409;BMP180;6268;48.188;17.134;2023-02-01T09:45:09;49644.88;;;-134.68
12409;BMP180;6268;48.188;17.134;2023-02-01T09:47:46;49642.94;;;-134.68
12409;BMP180;6268;48.188;17.134;2023-02-01T09:50:21;49646.84;;;-134.68
12409;BMP180;6268;48.188;17.134;2023-02-01T09:53:00;49644.88;;;-134.68
12409;BMP180;6268;48.188;17.134;2023-02-01T09:55:37;49642.94;;;-134.68
12409;BMP180;6268;48.188;17.134;2023-02-01T09:58:15;49642.94;;;-134.68
12409;BMP180;6268;48.188;17.134;2023-02-01T10:00:51;49644.88;;;-134.68
12409;BMP180;6268;48.188;17.134;2023-02-01T10:03:23;49646.84;;;-134.68
12409;BMP180;6268;48.188;17.134;2023-02-01T10:06:20;49644.88;;;-134.68
12409;BMP180;6268;48.188;17.134;2023-02-01T10:09:23;49646.84;;;-134.68
12409;BMP180;6268;48.188;17.134;2023-02-01T10:12:56;49642.94;;;-134.68
12409;BMP180;6268;48.188;17.134;2023-02-01T10:15:43;49644.88;;;-134.68
12409;BMP180;6268;48.188;17.134;2023-02-01T10:18:45;49646.84;;;-134.68
12409;BMP180;6268;48.188;17.134;2023-02-01T10:21:34;49642.94;;;-134.68
12409;BMP180;6268;48.188;17.134;2023-02-01T10:24:36;49641.00;;;-134.68
12409;BMP180;6268;48.188;17.134;2023-02-01T10:27:14;49646.84;;;-134.68
12409;BMP180;6268;48.188;17.134;2023-02-01T10:29:54;49644.88;;;-134.68
12409;BMP180;6268;48.188;17.134;2023-02-01T10:32:31;49646.84;;;-134.68
12409;BMP180;6268;48.188;17.134;2023-02-01T10:35:10;49644.88;;;-134.68
12409;BMP180;6268;48.188;17.134;2023-02-01T10:37:42;49644.88;;;-134.68
12409;BMP180;6268;48.188;17.134;2023-02-01T10:40:20;49646.84;;;-134.68
12409;BMP180;6268;48.188;17.134;2023-02-01T10:42:53;49646.84;;;-134.68
12409;BMP180;6268;48.188;17.134;2023-02-01T10:45:26;49641.00;;;-134.68
12409;BMP180;6268;48.188;17.134;2023-02-01T10:47:58;49639.06;;;-134.68
12409;BMP180;6268;48.188;17.134;2023-02-01T10:50:36;49644.88;;;-134.68
12409;BMP180;6268;48.188;17.134;2023-02-01T10:53:15;49644.88;;;-134.68
12409;BMP180;6268;48.188;17.134;2023-02-01T10:55:51;49642.94;;;-134.68
12409;BMP180;6268;48.188;17.134;2023-02-01T10:58:27;49642.94;;;-134.68
12409;BMP180;6268;48.188;17.134;2023-02-01T11:01:01;49642.94;;;-134.68
12409;BMP180;6268;48.188;17.134;2023-02-01T11:03:39;49641.00;;;-134.68
12409;BMP180;6268;48.188;17.134;2023-02-01T11:06:26;49641.00;;;-134.68
12409;BMP180;6268;48.188;17.134;2023-02-01T11:08:58;49642.94;;;-134.68
12409;BMP180;6268;48.188;17.134;2023-02-01T11:11:29;49642.94;;;-134.68
12409;BMP180;6268;48.188;17.134;2023-02-01T11:14:00;49639.06;;;-134.68
12409;BMP180;6268;48.188;17.134;2023-02-01T11:16:35;49642.94;;;-134.68
12409;BMP180;6268;48.188;17.134;2023-02-01T11:19:06;49641.00;;;-134.68
12409;BMP180;6268;48.188;17.134;2023-02-01T11:21:35;49642.94;;;-134.68
12409;BMP180;6268;48.188;17.134;2023-02-01T11:24:19;49642.94;;;-134.68
12409;BMP180;6268;48.188;17.134;2023-02-01T11:26:54;49642.94;;;-134.68
12409;BMP180;6268;48.188;17.134;2023-02-01T11:29:25;49644.88;;;-134.68
12409;BMP180;6268;48.188;17.134;2023-02-01T11:31:59;49642.94;;;-134.68
12409;BMP180;6268;48.188;17.134;2023-02-01T11:34:37;49646.84;;;-134.68
12409;BMP180;6268;48.188;17.134;2023-02-01T11:37:17;49644.88;;;-134.68
12409;BMP180;6268;48.188;17.134;2023-02-01T11:39:55;49642.94;;;-134.68
12409;BMP180;6268;48.188;17.134;2023-02-01T11:42:27;49644.88;;;-134.68
12409;BMP180;6268;48.188;17.134;2023-02-01T11:45:24;49644.88;;;-134.68
12409;BMP180;6268;48.188;17.134;2023-02-01T11:47:55;49646.84;;;-134.68
12409;BMP180;6268;48.188;17.134;2023-02-01T11:50:34;49646.84;;;-134.68
12409;BMP180;6268;48.188;17.134;2023-02-01T11:53:35;49644.88;;;-134.68
12409;BMP180;6268;48.188;17.134;2023-02-01T11:56:19;49646.84;;;-134.68
12409;BMP180;6268;48.188;17.134;2023-02-01T11:59:10;49642.94;;;-134.68
12409;BMP180;6268;48.188;17.134;2023-02-01T12:02:11;49644.88;;;-134.68
12409;BMP180;6268;48.188;17.134;2023-02-01T12:05:12;49644.88;;;-134.68
12409;BMP180;6268;48.188;17.134;2023-02-01T12:08:09;49642.94;;;-134.68
12409;BMP180;6268;48.188;17.134;2023-02-01T12:10:55;49642.94;;;-134.68
12409;BMP180;6268;48.188;17.134;2023-02-01T12:13:43;49642.94;;;-134.68
12409;BMP180;6268;48.188;17.134;2023-02-01T12:16:41;49642.94;;;-134.68
12409;BMP180;6268;48.188;17.134;2023-02-01T12:19:36;49646.84;;;-134.68
12409;BMP180;6268;48.188;17.134;2023-02-01T12:22:28;49644.88;;;-134.68
12409;BMP180;6268;48.188;17.134;2023-02-01T12:25:20;49641.00;;;-134.68
12409;BMP180;6268;48.188;17.134;2023-02-01T12:28:35;49642.94;;;-134.68
12409;BMP180;6268;48.188;17.134;2023-02-01T12:31:26;49642.94;;;-134.68
12409;BMP180;6268;48.188;17.134;2023-02-01T12:34:31;49642.94;;;-134.68
12409;BMP180;6268;48.188;17.134;2023-02-01T12:37:14;49642.94;;;-134.68
12409;BMP180;6268;48.188;17.134;2023-02-01T12:40:00;49642.94;;;-134.68
12409;BMP180;6268;48.188;17.134;2023-02-01T12:42:37;49644.88;;;-134.68
12409;BMP180;6268;48.188;17.134;2023-02-01T12:45:15;49642.94;;;-134.68
12409;BMP180;6268;48.188;17.134;2023-02-01T12:47:52;49641.00;;;-134.68
12409;BMP180;6268;48.188;17.134;2023-02-01T12:50:28;49642.94;;;-134.68
12409;BMP180;6268;48.188;17.134;2023-02-01T12:53:11;49642.94;;;-134.68
12409;BMP180;6268;48.188;17.134;2023-02-01T12:55:52;49642.94;;;-134.68
12409;BMP180;6268;48.188;17.134;2023-02-01T12:58:26;49642.94;;;-134.68
12409;BMP180;6268;48.188;17.134;2023-02-01T13:01:01;49642.94;;;-134.68
12409;BMP180;6268;48.188;17.134;2023-02-01T13:03:38;49642.94;;;-134.68
12409;BMP180;6268;48.188;17.134;2023-02-01T13:06:13;49644.88;;;-134.68
12409;BMP180;6268;48.188;17.134;2023-02-01T13:08:56;49641.00;;;-134.68
12409;BMP180;6268;48.188;17.134;2023-02-01T13:11:30;49644.88;;;-134.68
12409;BMP180;6268;48.188;17.134;2023-02-01T13:14:05;49644.88;;;-134.68
12409;BMP180;6268;48.188;17.134;2023-02-01T13:16:43;49642.94;;;-134.68
12409;BMP180;6268;48.188;17.134;2023-02-01T13:19:26;49646.84;;;-134.68
12409;BMP180;6268;48.188;17.134;2023-02-01T13:22:00;49642.94;;;-134.68
12409;BMP180;6268;48.188;17.134;2023-02-01T13:24:42;49642.94;;;-134.68
12409;BMP180;6268;48.188;17.134;2023-02-01T13:27:15;49642.94;;;-134.68
12409;BMP180;6268;48.188;17.134;2023-02-01T13:29:52;49642.94;;;-134.68
12409;BMP180;6268;48.188;17.134;2023-02-01T13:32:59;49641.00;;;-134.68
12409;BMP180;6268;48.188;17.134;2023-02-01T13:36:33;49642.94;;;-134.68
12409;BMP180;6268;48.188;17.134;2023-02-01T13:42:28;49644.88;;;-134.68
12409;BMP180;6268;48.188;17.134;2023-02-01T13:45:02;49642.94;;;-134.68
12409;BMP180;6268;48.188;17.134;2023-02-01T13:47:38;49642.94;;;-134.68
12409;BMP180;6268;48.188;17.134;2023-02-01T13:50:21;49644.88;;;-134.68
12409;BMP180;6268;48.188;17.134;2023-02-01T13:52:56;49642.94;;;-134.68
12409;BMP180;6268;48.188;17.134;2023-02-01T13:55:35;49641.00;;;-134.68
12409;BMP180;6268;48.188;17.134;2023-02-01T13:58:20;49642.94;;;-134.68
12409;BMP180;6268;48.188;17.134;2023-02-01T14:00:50;49644.88;;;-134.68
12409;BMP180;6268;48.188;17.134;2023-02-01T14:03:22;49642.94;;;-134.68
12409;BMP180;6268;48.188;17.134;2023-02-01T14:06:40;49642.94;;;-134.68
12409;BMP180;6268;48.188;17.134;2023-02-01T14:09:31;49642.94;;;-134.68
12409;BMP180;6268;48.188;17.134;2023-02-01T14:15:27;49644.88;;;-134.68
12409;BMP180;6268;48.188;17.134;2023-02-01T14:17:56;49641.00;;;-134.68
12409;BMP180;6268;48.188;17.134;2023-02-01T14:20:47;49644.88;;;-134.68
12409;BMP180;6268;48.188;17.134;2023-02-01T14:23:30;49642.94;;;-134.68
12409;BMP180;6268;48.188;17.134;2023-02-01T14:26:17;49642.94;;;-134.68
12409;BMP180;6268;48.188;17.134;2023-02-01T14:29:00;49642.94;;;-134.68
12409;BMP180;6268;48.188;17.134;2023-02-01T14:31:43;49642.94;;;-134.68
12409;BMP180;6268;48.188;17.134;2023-02-01T14:34:29;49641.00;;;-134.68
12409;BMP180;6268;48.188;17.134;2023-02-01T14:37:01;49644.88;;;-134.68
12409;BMP180;6268;48.188;17.134;2023-02-01T14:39:53;49642.94;;;-134.68
12409;BMP180;6268;48.188;17.134;2023-02-01T14:42:38;49644.88;;;-134.68